Time;durP1;ratioP1;P1;durP2;ratioP2;P2;SDS_P1;SDS_P2;PMS_P1;PMS_P2;Temp;Humidity;BMP_temperature;BMP_pressure;BME280_temperature;BME280_humidity;BME280_pressure;Samples;Min_cycle;Max_cycle;Signal;HPM_P1;HPM_P2
2021/12/26 00:02:18;;;;;;;0.20;0.20;;;;;;;18.64;39.82;100390.69;5119193;27;20581;-33
2021/12/26 00:04:43;;;;;;;0.20;0.20;;;;;;;18.65;39.82;100395.09;5133019;27;20058;-34
2021/12/26 00:07:09;;;;;;;0.20;0.20;;;;;;;18.64;39.95;100396.22;5138294;27;20055;-34
2021/12/26 00:09:35;;;;;;;0.20;0.20;;;;;;;18.64;39.86;100394.28;5140929;27;20051;-31
2021/12/26 00:12:00;;;;;;;0.20;0.20;;;;;;;18.65;39.86;100389.59;5137831;27;20061;-31
2021/12/26 00:14:26;;;;;;;0.20;0.20;;;;;;;18.64;39.79;100388.75;5136625;27;20043;-31
2021/12/26 00:16:52;;;;;;;0.20;0.20;;;;;;;18.64;39.78;100385.19;5137417;27;20495;-33
2021/12/26 00:19:18;;;;;;;0.20;0.20;;;;;;;18.64;39.86;100387.94;5134013;27;20307;-31
2021/12/26 00:21:43;;;;;;;0.20;0.20;;;;;;;18.63;39.71;100387.13;5136826;27;20396;-31
2021/12/26 00:24:09;;;;;;;0.20;0.20;;;;;;;18.65;39.73;100384.06;5143884;27;20135;-32
2021/12/26 00:26:37;;;;;;;0.20;0.20;;;;;;;18.64;39.74;100380.50;5132979;27;20043;-33
2021/12/26 00:29:03;;;;;;;0.20;0.20;;;;;;;18.64;39.78;100383.25;5121851;27;20050;-31
2021/12/26 00:31:29;;;;;;;0.20;0.20;;;;;;;18.62;39.82;100377.22;5138440;27;20487;-31
2021/12/26 00:33:55;;;;;;;0.20;0.20;;;;;;;18.64;39.92;100379.66;5117002;27;20050;-32
2021/12/26 00:36:21;;;;;;;0.20;0.20;;;;;;;18.63;39.86;100376.09;5135123;27;20039;-31
2021/12/26 00:38:46;;;;;;;0.25;0.25;;;;;;;18.64;39.79;100365.88;5119065;27;20070;-32
2021/12/26 00:41:12;;;;;;;0.20;0.20;;;;;;;18.63;39.69;100370.56;5135294;27;20050;-33
2021/12/26 00:43:37;;;;;;;0.20;0.20;;;;;;;18.63;39.74;100362.31;5136903;27;20338;-31
2021/12/26 00:46:04;;;;;;;0.20;0.20;;;;;;;18.64;40.04;100363.13;5136218;27;20054;-31
2021/12/26 00:48:30;;;;;;;0.20;0.20;;;;;;;18.64;40.00;100360.38;5119803;27;20043;-33
2021/12/26 00:50:56;;;;;;;0.20;0.20;;;;;;;18.64;39.88;100360.38;5136820;27;20396;-33
2021/12/26 00:53:22;;;;;;;0.20;0.20;;;;;;;18.63;39.81;100348.50;5137419;27;20104;-31
2021/12/26 00:55:49;;;;;;;0.20;0.20;;;;;;;18.64;39.86;100349.34;5122700;27;20039;-31
2021/12/26 00:58:15;;;;;;;0.20;0.20;;;;;;;18.63;39.84;100351.28;5140059;27;20043;-31
2021/12/26 01:00:43;;;;;;;0.20;0.20;;;;;;;18.64;39.95;100349.34;5138065;27;20058;-31
2021/12/26 01:03:10;;;;;;;0.20;0.20;;;;;;;18.64;39.81;100346.56;5118752;27;20153;-31
2021/12/26 01:05:37;;;;;;;0.20;0.20;;;;;;;18.64;39.72;100350.16;5120348;27;20034;-32
2021/12/26 01:08:05;;;;;;;0.20;0.20;;;;;;;18.64;39.74;100349.34;5121613;27;20087;-31
2021/12/26 01:10:41;;;;;;;0.20;0.20;;;;;;;18.64;39.90;100350.16;5120800;27;20035;-31
2021/12/26 01:13:22;;;;;;;0.20;0.20;;;;;;;18.64;39.78;100344.63;5120934;27;20115;-31
2021/12/26 01:15:49;;;;;;;0.20;0.20;;;;;;;18.61;39.95;100348.00;5117673;27;20443;-33
2021/12/26 01:18:15;;;;;;;0.20;0.20;;;;;;;18.63;39.84;100345.75;5140203;27;20070;-31
2021/12/26 01:20:49;;;;;;;0.20;0.20;;;;;;;18.62;39.86;100352.41;5117312;27;20039;-31
2021/12/26 01:23:17;;;;;;;0.20;0.20;;;;;;;18.64;39.85;100354.84;5136766;27;20051;-32
2021/12/26 01:25:42;;;;;;;0.20;0.20;;;;;;;18.64;39.83;100352.09;5142508;27;20047;-31
2021/12/26 01:28:09;;;;;;;0.20;0.20;;;;;;;18.64;39.82;100352.09;5123045;27;20452;-31
2021/12/26 01:30:38;;;;;;;0.20;0.20;;;;;;;18.64;39.90;100354.84;5136710;27;20388;-35
2021/12/26 01:33:06;;;;;;;0.20;0.20;;;;;;;18.64;39.89;100346.56;5100335;27;20047;-31
2021/12/26 01:35:32;;;;;;;0.20;0.20;;;;;;;18.64;39.92;100357.59;5120578;27;20039;-33
2021/12/26 01:37:58;;;;;;;0.20;0.20;;;;;;;18.63;40.07;100350.44;5134362;27;20050;-32
2021/12/26 01:40:24;;;;;;;0.20;0.20;;;;;;;18.64;39.98;100349.34;5119312;27;20047;-32
2021/12/26 01:42:51;;;;;;;0.20;0.20;;;;;;;18.64;39.90;100354.84;5139028;27;20111;-31
2021/12/26 01:45:17;;;;;;;0.20;0.20;;;;;;;18.64;39.85;100354.84;5137969;27;20042;-31
2021/12/26 01:47:46;;;;;;;0.20;0.20;;;;;;;18.64;39.85;100361.19;5136473;27;20378;-32
2021/12/26 01:50:12;;;;;;;0.20;0.20;;;;;;;18.64;39.92;100352.09;5119456;27;20073;-31
2021/12/26 01:52:37;;;;;;;0.20;0.20;;;;;;;18.63;39.65;100359.53;5117922;27;20524;-31
2021/12/26 01:57:52;;;;;;;0.30;0.30;;;;;;;18.63;39.86;100359.53;5107899;27;20043;-31
2021/12/26 02:00:18;;;;;;;0.20;0.20;;;;;;;18.63;40.00;100356.78;5138699;27;20039;-31
2021/12/26 02:02:43;;;;;;;0.20;0.20;;;;;;;18.63;39.84;100347.69;5119284;27;20452;-33
2021/12/26 02:05:09;;;;;;;0.20;0.20;;;;;;;18.64;39.96;100336.38;5117988;27;20043;-31
2021/12/26 02:07:35;;;;;;;0.20;0.20;;;;;;;18.64;39.81;100328.09;5139981;27;20099;-31
2021/12/26 02:10:00;;;;;;;0.20;0.20;;;;;;;18.65;39.83;100331.66;5139825;27;20039;-31
2021/12/26 02:12:26;;;;;;;0.20;0.20;;;;;;;18.63;39.79;100328.38;5141857;27;20043;-31
2021/12/26 02:14:53;;;;;;;0.20;0.20;;;;;;;18.63;39.94;100336.66;5144536;27;20084;-32
2021/12/26 02:17:19;;;;;;;0.20;0.20;;;;;;;18.63;39.94;100323.69;5144926;27;20050;-33
2021/12/26 02:19:45;;;;;;;0.20;0.20;;;;;;;18.62;39.91;100333.09;5121129;27;20035;-31
2021/12/26 02:22:22;;;;;;;0.20;0.20;;;;;;;18.63;40.00;100331.16;5125449;27;20456;-31
2021/12/26 02:25:10;;;;;;;0.20;0.20;;;;;;;18.62;39.81;100322.06;5132102;27;20070;-31
2021/12/26 02:27:42;;;;;;;0.30;0.30;;;;;;;18.64;39.81;100319.00;5114806;27;20050;-31
2021/12/26 02:30:12;;;;;;;0.20;0.20;;;;;;;18.62;39.81;100316.53;5144990;27;20047;-31
2021/12/26 02:32:38;;;;;;;0.20;0.20;;;;;;;18.64;39.85;100321.75;5122651;27;20057;-32
2021/12/26 02:35:04;;;;;;;0.20;0.20;;;;;;;18.64;39.92;100316.25;5136153;27;20367;-32
2021/12/26 02:37:29;;;;;;;0.20;0.20;;;;;;;18.64;39.94;100310.72;5123088;27;20038;-32
2021/12/26 02:39:55;;;;;;;0.20;0.20;;;;;;;18.64;39.97;100311.53;5119973;27;20039;-32
2021/12/26 02:42:22;;;;;;;0.20;0.20;;;;;;;18.63;39.96;100309.91;5140423;27;20382;-31
2021/12/26 02:44:49;;;;;;;0.30;0.30;;;;;;;18.63;39.94;100307.16;5137735;27;20288;-31
2021/12/26 02:47:30;;;;;;;0.20;0.20;;;;;;;18.63;39.92;100311.84;5105452;27;20239;-31
2021/12/26 02:50:01;;;;;;;0.20;0.20;;;;;;;18.63;39.97;100309.09;5139852;27;20039;-31
2021/12/26 02:52:27;;;;;;;0.20;0.20;;;;;;;18.64;40.04;100307.97;5117422;27;20039;-32
2021/12/26 02:54:52;;;;;;;0.20;0.20;;;;;;;18.62;40.05;100308.28;5138620;27;20042;-31
2021/12/26 02:57:18;;;;;;;0.30;0.30;;;;;;;18.63;40.04;100309.91;5136143;27;20552;-32
2021/12/26 02:59:44;;;;;;;0.20;0.20;;;;;;;18.63;39.98;100309.09;5136846;27;20043;-31
2021/12/26 03:02:09;;;;;;;0.25;0.25;;;;;;;18.63;39.87;100307.16;5135041;27;20043;-31
2021/12/26 03:04:35;;;;;;;0.20;0.20;;;;;;;18.63;39.90;100312.66;5134917;27;20046;-31
2021/12/26 03:07:02;;;;;;;0.20;0.20;;;;;;;18.64;39.87;100316.25;5137678;27;20035;-32
2021/12/26 03:09:33;;;;;;;0.20;0.20;;;;;;;18.63;40.01;100320.13;5138623;27;20142;-31
2021/12/26 03:11:59;;;;;;;0.20;0.20;;;;;;;18.62;40.00;100324.00;5121246;27;20465;-31
2021/12/26 03:14:25;;;;;;;0.20;0.20;;;;;;;18.63;39.92;100320.13;5109736;27;20103;-34
2021/12/26 03:16:51;;;;;;;0.20;0.20;;;;;;;18.64;39.91;100327.28;5141250;27;20467;-31
2021/12/26 03:19:17;;;;;;;0.20;0.20;;;;;;;18.64;40.13;100319.00;5121819;27;20057;-33
2021/12/26 03:21:43;;;;;;;0.20;0.20;;;;;;;18.63;39.91;100320.94;5118162;27;20118;-33
2021/12/26 03:24:09;;;;;;;0.20;0.20;;;;;;;18.62;39.90;100319.28;5136077;27;20035;-33
2021/12/26 03:26:34;;;;;;;0.20;0.20;;;;;;;18.63;40.09;100318.19;5139950;27;20042;-33
2021/12/26 03:29:00;;;;;;;0.20;0.20;;;;;;;18.63;39.92;100320.13;5140591;27;20047;-34
2021/12/26 03:31:26;;;;;;;0.20;0.20;;;;;;;18.64;39.99;100319.81;5138647;27;20043;-31
2021/12/26 03:33:52;;;;;;;0.20;0.20;;;;;;;18.64;40.02;100313.47;5134257;27;20366;-31
2021/12/26 03:36:17;;;;;;;0.20;0.20;;;;;;;18.63;39.94;100311.84;5134512;27;20046;-31
2021/12/26 03:38:43;;;;;;;0.20;0.20;;;;;;;18.62;39.79;100315.72;5143018;27;20046;-31
2021/12/26 03:41:09;;;;;;;0.20;0.20;;;;;;;18.62;39.99;100319.28;5109403;27;20047;-31
2021/12/26 03:43:34;;;;;;;0.20;0.20;;;;;;;18.62;39.89;100313.78;5134424;27;20061;-31
2021/12/26 03:46:00;;;;;;;0.20;0.20;;;;;;;18.62;39.92;100305.50;5118615;27;20087;-32
2021/12/26 03:48:26;;;;;;;0.20;0.20;;;;;;;18.62;40.06;100311.03;5138366;27;20040;-32
2021/12/26 03:50:54;;;;;;;0.20;0.20;;;;;;;18.62;39.97;100305.50;5118343;27;20469;-31
2021/12/26 03:53:20;;;;;;;0.20;0.20;;;;;;;18.62;39.89;100302.75;5139304;27;20082;-32
2021/12/26 03:55:47;;;;;;;0.20;0.20;;;;;;;18.63;39.97;100306.31;5115704;27;20046;-32
2021/12/26 03:58:13;;;;;;;0.20;0.20;;;;;;;18.63;39.88;100300.81;5142314;27;20035;-32
2021/12/26 04:00:39;;;;;;;0.20;0.20;;;;;;;18.63;39.92;100303.56;5120563;27;20063;-32
2021/12/26 04:03:05;;;;;;;0.20;0.20;;;;;;;18.63;40.01;100296.13;5137055;27;20042;-31
2021/12/26 04:05:30;;;;;;;0.20;0.20;;;;;;;18.61;40.06;100298.34;5116905;27;20103;-32
2021/12/26 04:07:56;;;;;;;0.20;0.20;;;;;;;18.64;40.06;100294.16;5134447;27;20050;-32
2021/12/26 04:10:22;;;;;;;0.20;0.20;;;;;;;18.62;39.99;100296.41;5135035;27;20046;-33
2021/12/26 04:12:50;;;;;;;0.20;0.20;;;;;;;18.63;39.90;100293.34;5135556;27;20053;-34
2021/12/26 04:15:20;;;;;;;0.20;0.20;;;;;;;18.62;39.93;100290.91;5139976;27;20043;-34
2021/12/26 04:17:47;;;;;;;0.20;0.20;;;;;;;18.62;40.05;100291.72;5115543;27;20039;-31
2021/12/26 04:20:12;;;;;;;0.20;0.20;;;;;;;18.62;39.83;100293.66;5143348;27;20042;-31
2021/12/26 04:22:39;;;;;;;0.20;0.20;;;;;;;18.62;39.86;100288.97;5137050;27;20055;-31
2021/12/26 04:25:05;;;;;;;0.20;0.20;;;;;;;18.63;39.90;100295.28;5113974;27;20065;-32
2021/12/26 04:27:32;;;;;;;0.20;0.20;;;;;;;18.61;39.91;100292.84;5140992;27;20045;-32
2021/12/26 04:29:58;;;;;;;0.20;0.20;;;;;;;18.62;39.95;100288.97;5119190;27;20434;-33
2021/12/26 04:32:23;;;;;;;0.20;0.20;;;;;;;18.63;39.77;100284.25;5135677;27;20477;-32
2021/12/26 04:34:49;;;;;;;0.20;0.20;;;;;;;18.63;39.95;100287.03;5141116;27;20537;-32
2021/12/26 04:37:15;;;;;;;0.20;0.20;;;;;;;18.62;39.93;100277.13;5136863;27;20073;-34
2021/12/26 04:39:40;;;;;;;0.20;0.20;;;;;;;18.63;39.78;100276.81;5139275;27;20046;-32
2021/12/26 04:42:07;;;;;;;0.20;0.20;;;;;;;18.62;40.00;100280.69;5122845;27;20046;-33
2021/12/26 04:44:32;;;;;;;0.20;0.20;;;;;;;18.62;39.87;100277.13;5117890;27;20055;-33
2021/12/26 04:46:58;;;;;;;0.20;0.20;;;;;;;18.63;39.89;100278.75;5135316;27;20061;-31
2021/12/26 04:49:24;;;;;;;0.20;0.20;;;;;;;18.63;40.23;100276.00;5135697;27;20082;-32
2021/12/26 04:51:49;;;;;;;0.20;0.20;;;;;;;18.62;39.96;100271.59;5136755;27;20035;-32
2021/12/26 04:54:15;;;;;;;0.30;0.30;;;;;;;18.63;40.00;100278.75;5113549;27;20431;-32
2021/12/26 04:56:42;;;;;;;0.22;0.22;;;;;;;18.63;39.74;100268.53;5117318;27;20089;-32
2021/12/26 04:59:07;;;;;;;0.20;0.20;;;;;;;18.64;39.96;100277.63;5137612;27;20481;-32
2021/12/26 05:01:35;;;;;;;0.20;0.20;;;;;;;18.63;39.99;100259.44;5139984;27;20092;-32
2021/12/26 05:04:01;;;;;;;0.20;0.20;;;;;;;18.62;39.97;100261.38;5134470;27;20056;-32
2021/12/26 05:06:27;;;;;;;0.20;0.20;;;;;;;18.62;40.04;100263.31;5121343;27;20477;-32
2021/12/26 05:08:53;;;;;;;0.20;0.20;;;;;;;18.62;39.97;100260.56;5124885;27;20051;-31
2021/12/26 05:11:19;;;;;;;0.20;0.20;;;;;;;18.62;40.04;100258.63;5137353;27;20556;-31
2021/12/26 05:13:45;;;;;;;0.20;0.20;;;;;;;18.63;39.77;100267.72;5133342;27;20100;-33
2021/12/26 05:16:10;;;;;;;0.20;0.20;;;;;;;18.63;39.89;100273.22;5142253;27;20039;-33
2021/12/26 05:18:36;;;;;;;0.20;0.20;;;;;;;18.62;39.83;100272.41;5138900;27;20046;-34
2021/12/26 05:21:03;;;;;;;0.20;0.20;;;;;;;18.62;39.92;100268.84;5127496;27;20050;-32
2021/12/26 05:23:28;;;;;;;0.20;0.20;;;;;;;18.61;39.96;100262.50;5117106;27;20045;-32
2021/12/26 05:25:54;;;;;;;0.20;0.20;;;;;;;18.62;39.98;100264.13;5140968;27;20483;-32
2021/12/26 05:28:20;;;;;;;0.20;0.20;;;;;;;18.63;40.06;100267.72;5131704;27;20504;-31
2021/12/26 05:30:45;;;;;;;0.20;0.20;;;;;;;18.63;39.87;100271.28;5119938;27;20442;-35
2021/12/26 05:33:12;;;;;;;0.20;0.20;;;;;;;18.62;39.87;100277.94;5136229;27;20465;-31
2021/12/26 05:35:37;;;;;;;0.30;0.30;;;;;;;18.62;39.97;100277.94;5139448;27;20134;-31
2021/12/26 05:38:03;;;;;;;0.20;0.20;;;;;;;18.63;39.74;100278.75;5136472;27;20073;-32
2021/12/26 05:40:29;;;;;;;0.20;0.20;;;;;;;18.62;39.84;100266.91;5137767;27;20397;-31
2021/12/26 05:42:55;;;;;;;0.20;0.20;;;;;;;18.62;39.95;100274.34;5139619;27;20581;-31
2021/12/26 05:45:20;;;;;;;0.20;0.20;;;;;;;18.62;40.03;100268.84;5135896;27;20058;-31
2021/12/26 05:47:46;;;;;;;0.30;0.30;;;;;;;18.62;39.82;100268.84;5123302;27;20051;-31
2021/12/26 05:50:17;;;;;;;0.20;0.20;;;;;;;18.62;40.00;100266.91;5142873;27;20050;-31
2021/12/26 05:52:43;;;;;;;0.20;0.20;;;;;;;18.63;40.00;100276.00;5137302;27;20047;-32
2021/12/26 05:55:10;;;;;;;0.20;0.20;;;;;;;18.63;39.98;100265.78;5123899;27;20049;-33
2021/12/26 05:57:36;;;;;;;0.20;0.20;;;;;;;18.63;40.04;100259.44;5136966;27;20045;-33
2021/12/26 06:00:05;;;;;;;0.20;0.20;;;;;;;18.63;39.96;100259.44;5126302;27;20042;-33
2021/12/26 06:02:31;;;;;;;0.20;0.20;;;;;;;18.62;39.94;100255.88;5145129;27;20061;-31
2021/12/26 06:04:57;;;;;;;0.20;0.20;;;;;;;18.62;39.89;100255.88;5133290;27;20070;-31
2021/12/26 06:07:22;;;;;;;0.20;0.20;;;;;;;18.63;39.77;100260.25;5136694;27;20039;-32
2021/12/26 06:09:48;;;;;;;0.20;0.20;;;;;;;18.63;39.91;100259.44;5137162;27;20043;-31
2021/12/26 06:12:14;;;;;;;0.20;0.20;;;;;;;18.63;39.91;100262.19;5139449;27;20046;-31
2021/12/26 06:14:40;;;;;;;0.20;0.20;;;;;;;18.61;39.89;100251.47;5117947;27;20087;-32
2021/12/26 06:17:05;;;;;;;0.20;0.20;;;;;;;18.61;40.08;100257.00;5139790;27;20107;-31
2021/12/26 06:19:31;;;;;;;0.20;0.20;;;;;;;18.62;39.92;100258.63;5139000;27;20129;-32
2021/12/26 06:21:57;;;;;;;0.20;0.20;;;;;;;18.61;39.96;100257.00;5139707;27;20047;-32
2021/12/26 06:24:22;;;;;;;0.28;0.28;;;;;;;18.63;39.83;100259.44;5136250;27;20046;-31
2021/12/26 06:26:48;;;;;;;0.22;0.22;;;;;;;18.63;39.94;100273.22;5141950;27;20405;-31
2021/12/26 06:29:14;;;;;;;0.20;0.20;;;;;;;18.62;39.95;100258.63;5141992;27;20043;-31
2021/12/26 06:31:39;;;;;;;0.20;0.20;;;;;;;18.63;39.95;100253.94;5139399;27;20051;-31
2021/12/26 06:34:06;;;;;;;0.20;0.20;;;;;;;18.63;39.94;100253.94;5135763;27;20122;-31
2021/12/26 06:36:32;;;;;;;0.20;0.20;;;;;;;18.62;39.92;100246.78;5126207;27;20046;-31
2021/12/26 06:38:57;;;;;;;0.30;0.30;;;;;;;18.61;40.17;100247.88;5141007;27;20047;-32
2021/12/26 06:41:25;;;;;;;0.20;0.20;;;;;;;18.62;39.98;100246.78;5136579;27;20051;-31
2021/12/26 06:43:51;;;;;;;0.20;0.20;;;;;;;18.62;40.09;100250.34;5138769;27;20090;-33
2021/12/26 06:46:16;;;;;;;0.20;0.20;;;;;;;18.62;39.96;100250.34;5138094;27;20043;-33
2021/12/26 06:48:42;;;;;;;0.20;0.20;;;;;;;18.62;39.86;100244.03;5136689;27;20512;-31
2021/12/26 06:51:08;;;;;;;0.20;0.20;;;;;;;18.62;40.03;100252.28;5137669;27;20103;-32
2021/12/26 06:53:33;;;;;;;0.20;0.20;;;;;;;18.62;39.91;100249.53;5115452;27;20107;-31
2021/12/26 06:55:59;;;;;;;0.20;0.20;;;;;;;18.62;39.91;100244.03;5137577;27;20043;-31
2021/12/26 06:58:25;;;;;;;0.30;0.30;;;;;;;18.62;39.97;100247.59;5139930;27;20115;-31
2021/12/26 07:00:50;;;;;;;0.20;0.20;;;;;;;18.62;39.84;100244.03;5140941;27;20050;-31
2021/12/26 07:03:17;;;;;;;0.20;0.20;;;;;;;18.62;39.89;100239.31;5118434;27;20054;-31
2021/12/26 07:05:42;;;;;;;0.20;0.20;;;;;;;18.63;39.86;100248.41;5118493;27;20043;-31
2021/12/26 07:08:08;;;;;;;0.20;0.20;;;;;;;18.63;39.81;100248.41;5139793;27;20273;-31
2021/12/26 07:10:34;;;;;;;0.20;0.20;;;;;;;18.63;39.83;100245.66;5122089;27;20654;-31
2021/12/26 07:13:00;;;;;;;0.20;0.20;;;;;;;18.63;39.89;100256.69;5116353;27;20047;-31
2021/12/26 07:15:26;;;;;;;0.20;0.20;;;;;;;18.62;39.91;100252.28;5141288;27;20046;-33
2021/12/26 07:17:56;;;;;;;0.28;0.28;;;;;;;18.62;39.81;100252.28;5125685;27;20088;-33
2021/12/26 07:20:21;;;;;;;0.20;0.20;;;;;;;18.63;39.92;100256.69;5122351;27;20066;-31
2021/12/26 07:22:47;;;;;;;0.20;0.20;;;;;;;18.63;39.88;100259.44;5141257;27;20398;-31
2021/12/26 07:25:14;;;;;;;0.20;0.20;;;;;;;18.61;39.82;100268.03;5136066;27;20043;-32
2021/12/26 07:27:40;;;;;;;0.20;0.20;;;;;;;18.62;39.98;100266.91;5138078;27;20042;-32
2021/12/26 07:30:07;;;;;;;0.20;0.20;;;;;;;18.62;39.95;100266.09;5121622;27;20095;-32
2021/12/26 07:32:33;;;;;;;0.20;0.20;;;;;;;18.62;39.89;100274.34;5134994;27;20053;-31
2021/12/26 07:34:59;;;;;;;0.20;0.20;;;;;;;18.63;39.96;100274.06;5103330;27;20065;-35
2021/12/26 07:37:26;;;;;;;0.20;0.20;;;;;;;18.62;39.82;100275.16;5138934;27;20040;-32
2021/12/26 07:39:52;;;;;;;0.20;0.20;;;;;;;18.61;40.05;100269.94;5138961;27;20396;-32
2021/12/26 07:42:17;;;;;;;0.20;0.20;;;;;;;18.61;40.08;100265.25;5139427;27;20631;-32
2021/12/26 07:44:43;;;;;;;0.20;0.20;;;;;;;18.61;40.14;100268.03;5112556;27;20055;-32
2021/12/26 07:47:09;;;;;;;0.20;0.20;;;;;;;18.62;39.97;100268.84;5116156;27;20035;-33
2021/12/26 07:49:35;;;;;;;0.20;0.20;;;;;;;18.61;40.01;100268.03;5119372;27;20069;-33
2021/12/26 07:52:02;;;;;;;0.20;0.20;;;;;;;18.62;39.90;100271.59;5121926;27;20086;-31
2021/12/26 07:54:28;;;;;;;0.20;0.20;;;;;;;18.61;39.90;100273.53;5117936;27;20439;-34
2021/12/26 07:56:55;;;;;;;0.25;0.25;;;;;;;18.63;40.00;100270.47;5121332;27;20461;-31
2021/12/26 07:59:20;;;;;;;0.20;0.20;;;;;;;18.62;39.95;100257.81;5138484;27;20048;-34
2021/12/26 08:01:46;;;;;;;0.20;0.20;;;;;;;18.62;39.91;100244.84;5140052;27;20464;-32
2021/12/26 08:04:13;;;;;;;0.20;0.20;;;;;;;18.62;39.94;100255.88;5122207;27;20039;-33
2021/12/26 08:06:40;;;;;;;0.25;0.25;;;;;;;18.63;40.03;100256.69;5138006;27;20047;-33
2021/12/26 08:09:06;;;;;;;0.20;0.20;;;;;;;18.63;40.00;100256.69;5140531;27;20057;-36
2021/12/26 08:11:32;;;;;;;0.20;0.20;;;;;;;18.62;39.84;100255.88;5118933;27;20193;-32
2021/12/26 08:13:59;;;;;;;0.20;0.20;;;;;;;18.62;39.98;100253.09;5114655;27;20492;-31
2021/12/26 08:16:26;;;;;;;0.20;0.20;;;;;;;18.62;39.81;100246.78;5118565;27;20202;-32
2021/12/26 08:18:52;;;;;;;0.20;0.20;;;;;;;18.62;39.81;100246.78;5137264;27;20137;-34
2021/12/26 08:21:18;;;;;;;0.20;0.20;;;;;;;18.62;39.98;100258.63;5141110;27;20039;-31
2021/12/26 08:23:43;;;;;;;0.20;0.20;;;;;;;18.61;39.95;100259.75;5134329;27;20080;-31
2021/12/26 08:26:09;;;;;;;0.20;0.20;;;;;;;18.61;39.96;100264.41;5136734;27;20466;-33
2021/12/26 08:28:35;;;;;;;0.20;0.20;;;;;;;18.61;39.83;100257.00;5138120;27;20051;-36
2021/12/26 08:31:01;;;;;;;0.30;0.30;;;;;;;18.61;39.90;100257.00;5139033;27;20045;-35
2021/12/26 08:33:26;;;;;;;0.20;0.20;;;;;;;18.61;39.91;100257.00;5115640;27;20055;-34
2021/12/26 08:35:52;;;;;;;0.20;0.20;;;;;;;18.61;39.83;100268.03;5139341;27;20117;-33
2021/12/26 08:38:21;;;;;;;0.20;0.20;;;;;;;18.61;39.99;100265.25;5119324;27;20070;-36
2021/12/26 08:40:47;;;;;;;;;;;;;;;18.62;39.92;100252.28;5142820;27;20060;-34
2021/12/26 08:43:13;;;;;;;0.20;0.20;;;;;;;18.61;40.02;100259.75;5114346;27;20210;-38
2021/12/26 08:45:39;;;;;;;0.20;0.20;;;;;;;18.61;39.74;100261.66;5135421;27;20445;-35
2021/12/26 08:48:05;;;;;;;0.20;0.20;;;;;;;18.61;39.98;100262.50;5138002;27;20111;-35
2021/12/26 08:50:31;;;;;;;0.20;0.20;;;;;;;18.61;39.87;100254.22;5136386;27;20058;-35
2021/12/26 08:52:57;;;;;;;0.20;0.20;;;;;;;18.61;40.05;100256.13;5134803;27;20055;-34
2021/12/26 08:55:24;;;;;;;0.20;0.20;;;;;;;18.62;39.79;100255.06;5119779;27;20116;-34
2021/12/26 08:57:51;;;;;;;0.20;0.20;;;;;;;18.61;39.92;100262.50;5117581;27;20049;-33
2021/12/26 09:00:17;;;;;;;0.20;0.20;;;;;;;18.61;40.02;100259.75;5121618;27;20038;-34
2021/12/26 09:02:43;;;;;;;0.20;0.20;;;;;;;18.62;40.03;100264.13;5136941;27;20130;-36
2021/12/26 09:05:09;;;;;;;0.20;0.20;;;;;;;18.62;39.80;100264.13;5137787;27;20095;-33
2021/12/26 09:07:35;;;;;;;0.20;0.20;;;;;;;18.62;39.95;100266.09;5136859;27;20103;-35
2021/12/26 09:10:03;;;;;;;0.20;0.20;;;;;;;18.62;40.00;100263.31;5138227;27;20445;-34
2021/12/26 09:12:28;;;;;;;0.20;0.20;;;;;;;18.62;39.97;100263.31;5137799;27;20039;-33
2021/12/26 09:14:54;;;;;;;0.20;0.20;;;;;;;18.62;39.93;100263.31;5132915;27;20045;-33
2021/12/26 09:17:20;;;;;;;0.28;0.28;;;;;;;18.61;39.82;100268.03;5134315;27;20582;-34
2021/12/26 09:19:45;;;;;;;0.20;0.20;;;;;;;18.61;40.05;100272.69;5144319;27;20729;-33
2021/12/26 09:22:15;;;;;;;0.20;0.20;;;;;;;18.61;40.00;100273.53;5140268;27;20071;-33
2021/12/26 09:24:41;;;;;;;0.20;0.20;;;;;;;18.62;39.79;100285.38;5106235;27;20449;-31
2021/12/26 09:27:07;;;;;;;0.20;0.20;;;;;;;18.63;39.94;100278.75;5136093;27;21349;-31
2021/12/26 09:29:33;;;;;;;0.20;0.20;;;;;;;18.61;39.83;100273.53;5145760;27;20039;-31
2021/12/26 09:32:02;;;;;;;0.20;0.20;;;;;;;18.62;39.81;100268.84;5141549;27;20297;-33
2021/12/26 09:34:29;;;;;;;0.20;0.20;;;;;;;18.62;39.95;100274.34;5141001;27;20039;-35
2021/12/26 09:36:56;;;;;;;0.20;0.20;;;;;;;18.62;40.01;100268.84;5139724;27;20086;-36
2021/12/26 09:39:23;;;;;;;0.20;0.20;;;;;;;18.61;39.90;100262.50;5120791;27;20836;-31
2021/12/26 09:41:50;;;;;;;0.20;0.20;;;;;;;18.62;39.89;100266.91;5138425;27;20043;-31
2021/12/26 09:44:19;;;;;;;0.20;0.20;;;;;;;18.61;39.80;100276.28;5121048;27;20035;-33
2021/12/26 09:46:45;;;;;;;0.20;0.20;;;;;;;18.62;39.92;100264.13;5139778;27;20045;-36
2021/12/26 09:49:10;;;;;;;0.20;0.20;;;;;;;18.61;40.09;100265.25;5124573;27;20043;-31
2021/12/26 09:51:36;;;;;;;0.20;0.20;;;;;;;18.60;40.00;100258.09;5142236;27;20062;-35
2021/12/26 09:54:04;;;;;;;0.20;0.20;;;;;;;18.61;39.93;100268.03;5118923;27;20142;-39
2021/12/26 09:56:31;;;;;;;0.20;0.20;;;;;;;18.62;39.86;100255.06;5141032;27;20053;-31
2021/12/26 09:59:00;;;;;;;0.20;0.20;;;;;;;18.62;40.17;100255.06;5137839;27;20099;-34
2021/12/26 10:01:28;;;;;;;0.20;0.20;;;;;;;18.62;39.91;100255.06;5141200;27;20064;-33
2021/12/26 10:03:54;;;;;;;0.20;0.20;;;;;;;18.63;39.83;100264.97;5142223;27;20074;-32
2021/12/26 10:06:20;;;;;;;0.20;0.20;;;;;;;18.61;39.97;100258.91;5117845;27;20039;-33
2021/12/26 10:08:51;;;;;;;0.20;0.20;;;;;;;18.62;40.03;100260.56;5139932;27;20051;-32
2021/12/26 10:11:19;;;;;;;0.20;0.20;;;;;;;18.61;39.91;100257.00;5127039;27;20043;-34
2021/12/26 10:13:48;;;;;;;0.20;0.20;;;;;;;18.62;39.95;100257.81;5135934;27;20100;-33
2021/12/26 10:16:15;;;;;;;0.20;0.20;;;;;;;18.61;39.93;100254.22;5144311;27;20042;-33
2021/12/26 10:18:42;;;;;;;0.20;0.20;;;;;;;18.62;39.91;100253.09;5138490;27;20047;-31
2021/12/26 10:24:14;;;;;;;0.20;0.20;;;;;;;18.61;39.91;100245.09;5160211;27;20202;-31
2021/12/26 10:26:49;;;;;;;0.20;0.20;;;;;;;18.61;39.93;100234.94;5144588;27;20054;-32
2021/12/26 10:31:56;;;;;;;0.20;0.20;;;;;;;18.62;40.04;100241.25;5159167;27;20117;-31
2021/12/26 10:34:25;;;;;;;0.20;0.20;;;;;;;18.61;39.93;100232.16;5133448;27;20039;-31
2021/12/26 10:36:52;;;;;;;0.20;0.20;;;;;;;18.61;39.96;100220.28;5157838;27;20094;-33
2021/12/26 10:39:21;;;;;;;0.20;0.20;;;;;;;18.62;39.80;100222.78;5139291;27;20400;-31
2021/12/26 10:41:51;;;;;;;0.20;0.20;;;;;;;18.61;39.87;100221.13;5137071;27;20041;-31
2021/12/26 10:44:20;;;;;;;0.20;0.20;;;;;;;18.62;39.96;100219.19;5135694;27;20035;-31
2021/12/26 10:46:51;;;;;;;0.20;0.20;;;;;;;18.60;39.88;100208.44;5153082;27;20053;-31
2021/12/26 10:49:39;;;;;;;0.20;0.20;;;;;;;18.60;39.81;100205.69;5155996;27;20051;-31
2021/12/26 10:52:23;;;;;;;;;;;;;;;18.61;39.82;100206.50;5127424;27;20050;-33
2021/12/26 10:54:51;;;;;;;0.20;0.20;;;;;;;18.61;39.93;100209.25;5153079;27;19919;-33
2021/12/26 10:57:20;;;;;;;0.20;0.20;;;;;;;18.61;39.97;100203.75;5156806;27;20512;-34
2021/12/26 10:59:49;;;;;;;0.20;0.20;;;;;;;18.61;39.92;100203.75;5137779;27;20051;-31
2021/12/26 11:02:22;;;;;;;;;;;;;;;18.61;39.99;100204.59;5160098;27;20042;-31
2021/12/26 11:04:56;;;;;;;0.20;0.20;;;;;;;18.61;39.87;100210.09;5154104;27;19953;-34
2021/12/26 11:07:21;;;;;;;0.20;0.20;;;;;;;18.61;40.00;100209.25;5160566;27;20057;-32
2021/12/26 11:10:00;;;;;;;0.20;0.20;;;;;;;18.61;40.00;100200.97;5158465;27;20046;-31
2021/12/26 11:12:37;;;;;;;0.20;0.20;;;;;;;18.60;39.90;100200.16;5121884;27;20091;-31
2021/12/26 11:15:03;;;;;;;0.30;0.30;;;;;;;18.61;40.17;100199.06;5155465;27;20255;-31
2021/12/26 11:17:31;;;;;;;0.20;0.20;;;;;;;18.60;39.74;100200.16;5155816;27;20174;-32
2021/12/26 11:19:56;;;;;;;0.20;0.20;;;;;;;18.61;39.79;100201.84;5138795;27;20077;-31
2021/12/26 11:22:24;;;;;;;0.20;0.20;;;;;;;18.60;39.87;100191.91;5161873;27;20121;-31
2021/12/26 11:24:50;;;;;;;0.20;0.20;;;;;;;18.60;39.93;100180.88;5153812;27;20053;-31
2021/12/26 11:27:16;;;;;;;0.20;0.20;;;;;;;18.60;39.91;100180.88;5140558;27;20037;-32
2021/12/26 11:29:42;;;;;;;0.20;0.20;;;;;;;18.60;40.02;100180.88;5156919;27;20109;-32
2021/12/26 11:32:08;;;;;;;0.20;0.20;;;;;;;18.60;39.93;100175.34;5156143;27;20047;-31
2021/12/26 11:34:37;;;;;;;0.20;0.20;;;;;;;18.61;39.97;100177.00;5153637;27;20042;-31